Time;durP1;ratioP1;P1;durP2;ratioP2;P2;SDS_P1;SDS_P2;PMS_P1;PMS_P2;Temp;Humidity;BMP_temperature;BMP_pressure;BME280_temperature;BME280_humidity;BME280_pressure;Samples;Min_cycle;Max_cycle;Signal;HPM_P1;HPM_P2
2023/10/24 00:00:53;;;;;;;1.20;1.20;;;;;;;13.00;93.59;94634.84;4289598;33;20182;-63
2023/10/24 00:03:19;;;;;;;1.93;1.80;;;;;;;13.08;93.69;94650.00;4311846;33;20236;-62
2023/10/24 00:05:47;;;;;;;2.13;2.03;;;;;;;13.13;92.98;94649.00;4313417;33;20186;-63
2023/10/24 00:08:15;;;;;;;0.80;0.80;;;;;;;13.09;93.14;94648.88;4294818;33;20178;-62
2023/10/24 00:10:41;;;;;;;2.60;1.47;;;;;;;13.20;92.73;94648.53;4255688;33;20189;-63
2023/10/24 00:13:12;;;;;;;1.57;1.50;;;;;;;13.12;93.05;94638.69;4278916;33;20225;-63
2023/10/24 00:15:38;;;;;;;1.37;1.37;;;;;;;13.13;93.26;94632.25;4291060;33;20249;-63
2023/10/24 00:18:04;;;;;;;1.10;1.10;;;;;;;13.13;93.18;94627.69;4304894;33;20273;-63
2023/10/24 00:20:31;;;;;;;2.67;1.17;;;;;;;13.05;93.28;94633.88;4313052;33;20190;-63
2023/10/24 00:22:59;;;;;;;1.73;1.63;;;;;;;13.09;93.17;94635.56;4315267;33;20233;-63
2023/10/24 00:25:26;;;;;;;0.60;0.60;;;;;;;13.12;93.33;94633.34;4315075;33;20178;-63
2023/10/24 00:27:51;;;;;;;0.70;0.70;;;;;;;13.13;93.20;94638.34;4293607;33;20190;-62
2023/10/24 00:30:16;;;;;;;1.37;1.37;;;;;;;13.21;92.72;94655.41;4275047;33;20212;-63
2023/10/24 00:32:42;;;;;;;0.60;0.60;;;;;;;13.21;92.68;94648.19;4282202;33;20202;-63
2023/10/24 00:35:09;;;;;;;2.07;1.97;;;;;;;13.01;93.22;94641.75;4297281;33;20360;-63
2023/10/24 00:37:38;;;;;;;1.60;1.50;;;;;;;13.02;93.55;94639.84;4285261;33;20209;-63
2023/10/24 00:40:04;;;;;;;1.00;1.00;;;;;;;13.06;92.98;94638.88;4313118;33;20181;-63
2023/10/24 00:42:31;;;;;;;1.03;1.03;;;;;;;13.02;93.22;94643.31;4279800;33;20203;-62
2023/10/24 00:44:56;;;;;;;3.00;1.70;;;;;;;13.03;93.03;94668.81;4307206;33;20236;-62
2023/10/24 00:47:24;;;;;;;1.30;1.30;;;;;;;12.90;93.52;94688.47;4303117;33;20214;-62
2023/10/24 00:49:52;;;;;;;1.67;1.57;;;;;;;12.73;94.65;94688.59;4290324;33;20190;-62
2023/10/24 00:52:24;;;;;;;0.73;0.73;;;;;;;12.69;94.80;94688.44;4300607;33;20229;-63
2023/10/24 00:54:50;;;;;;;1.23;1.23;;;;;;;12.66;95.16;94701.63;4313888;33;20281;-63
2023/10/24 00:57:16;;;;;;;1.97;1.87;;;;;;;12.75;94.97;94699.69;4298121;33;20189;-62
2023/10/24 00:59:45;;;;;;;0.97;0.97;;;;;;;12.68;95.30;94702.06;4288278;33;20190;-63
2023/10/24 01:02:12;;;;;;;0.63;0.63;;;;;;;12.68;95.26;94691.41;4284163;33;20212;-63
2023/10/24 01:04:43;;;;;;;1.67;1.57;;;;;;;12.65;95.52;94703.50;4280375;33;20253;-62
2023/10/24 01:07:08;;;;;;;1.20;1.20;;;;;;;12.77;95.02;94683.41;4296020;33;20186;-62
2023/10/24 01:09:35;;;;;;;1.07;1.07;;;;;;;12.69;95.13;94683.13;4315530;33;20277;-62
2023/10/24 01:12:06;;;;;;;1.67;1.57;;;;;;;12.67;95.10;94680.03;4301799;33;20198;-62
2023/10/24 01:14:34;;;;;;;0.87;0.87;;;;;;;12.80;94.85;94696.84;4304486;32;20233;-62
2023/10/24 01:17:08;;;;;;;1.30;1.30;;;;;;;12.75;95.00;94694.38;4285785;33;20243;-63
2023/10/24 01:19:34;;;;;;;1.20;1.20;;;;;;;12.76;94.70;94689.81;4277216;33;20189;-63
2023/10/24 01:22:00;;;;;;;8.43;1.33;;;;;;;12.82;94.51;94688.53;4315748;33;20247;-63
2023/10/24 01:24:27;;;;;;;0.60;0.60;;;;;;;12.78;94.31;94693.72;4302658;33;20183;-63
2023/10/24 01:26:57;;;;;;;1.80;1.70;;;;;;;12.70;94.75;94695.31;4315442;33;20293;-62
2023/10/24 01:29:24;;;;;;;1.33;1.33;;;;;;;12.61;95.35;94694.59;4297990;33;20204;-63
2023/10/24 01:31:49;;;;;;;1.13;1.13;;;;;;;12.62;95.24;94693.50;4309767;33;20244;-62
2023/10/24 01:34:17;;;;;;;1.60;1.50;;;;;;;12.65;95.04;94684.88;4312448;33;20253;-63
2023/10/24 01:36:46;;;;;;;1.73;1.23;;;;;;;12.64;95.07;94674.56;4308289;33;20200;-63
2023/10/24 01:39:12;;;;;;;1.30;1.30;;;;;;;12.73;94.71;94667.28;4308196;33;20198;-62
2023/10/24 01:41:39;;;;;;;0.87;0.87;;;;;;;12.68;94.95;94656.81;4293308;33;20208;-62
2023/10/24 01:44:04;;;;;;;1.53;1.53;;;;;;;12.60;95.19;94668.31;4279664;33;20293;-62
2023/10/24 01:46:31;;;;;;;0.90;0.90;;;;;;;12.53;95.45;94668.81;4307346;33;20224;-63
2023/10/24 01:48:57;;;;;;;1.27;1.27;;;;;;;12.56;95.32;94678.81;4274276;33;20201;-63
2023/10/24 01:51:24;;;;;;;1.20;1.20;;;;;;;12.60;94.87;94692.28;4277983;33;20295;-62
2023/10/24 01:53:52;;;;;;;0.73;0.73;;;;;;;12.54;95.22;94680.25;4308973;32;20231;-63
2023/10/24 01:56:17;;;;;;;3.13;1.90;;;;;;;12.67;94.58;94671.25;4312356;32;20197;-63
2023/10/24 01:58:43;;;;;;;1.20;1.10;;;;;;;12.67;94.60;94664.06;4315001;32;20212;-62
2023/10/24 02:01:13;;;;;;;0.67;0.67;;;;;;;12.67;94.55;94663.28;4313610;32;20185;-62
2023/10/24 02:03:38;;;;;;;1.90;1.80;;;;;;;12.65;94.51;94676.91;4295443;33;20233;-63
2023/10/24 02:06:04;;;;;;;3.53;2.13;;;;;;;12.74;93.93;94676.84;4291730;33;20273;-63
2023/10/24 02:08:31;;;;;;;1.13;1.13;;;;;;;12.71;94.26;94674.81;4275741;33;20243;-62
2023/10/24 02:10:58;;;;;;;1.00;1.00;;;;;;;12.63;94.76;94673.78;4298184;33;20190;-62
2023/10/24 02:13:26;;;;;;;1.57;1.47;;;;;;;12.63;94.59;94673.00;4316313;33;20257;-62
2023/10/24 02:15:53;;;;;;;1.50;1.40;;;;;;;12.67;94.33;94673.91;4319966;33;20243;-62
2023/10/24 02:18:20;;;;;;;1.50;1.50;;;;;;;12.58;94.74;94681.94;4324556;33;20219;-62
2023/10/24 02:20:45;;;;;;;0.83;0.83;;;;;;;12.43;95.00;94690.47;4337028;32;20190;-62
2023/10/24 02:23:12;;;;;;;1.43;1.43;;;;;;;12.48;95.28;94690.28;4307793;33;20205;-63
2023/10/24 02:25:37;;;;;;;1.53;1.43;;;;;;;12.54;94.97;94682.91;4280426;33;20197;-63
2023/10/24 02:28:04;;;;;;;0.73;0.73;;;;;;;12.59;94.75;94683.50;4297312;33;20178;-63
2023/10/24 02:30:30;;;;;;;0.60;0.57;;;;;;;12.48;95.05;94676.97;4289161;33;20249;-63
2023/10/24 02:33:01;;;;;;;2.30;0.83;;;;;;;12.63;94.54;94665.03;4292942;33;20185;-61
2023/10/24 02:35:28;;;;;;;1.30;1.30;;;;;;;12.55;94.46;94655.97;4306088;33;20209;-63
2023/10/24 02:37:56;;;;;;;1.67;1.57;;;;;;;12.60;94.29;94652.34;4296633;33;20185;-62
2023/10/24 02:40:25;;;;;;;0.60;0.60;;;;;;;12.52;94.68;94645.97;4282568;33;20178;-62
2023/10/24 02:42:54;;;;;;;1.37;0.90;;;;;;;12.61;94.37;94644.06;4312768;33;20269;-63
2023/10/24 02:45:20;;;;;;;1.53;1.43;;;;;;;12.57;94.17;94637.03;4298940;32;20252;-63
2023/10/24 02:47:45;;;;;;;1.37;1.37;;;;;;;12.66;93.85;94635.09;4301885;33;20182;-62
2023/10/24 02:50:11;;;;;;;1.10;1.10;;;;;;;12.64;94.04;94631.97;4324955;33;20193;-62
2023/10/24 02:52:38;;;;;;;1.33;1.33;;;;;;;12.51;94.56;94632.97;4312695;32;20187;-63
2023/10/24 02:55:05;;;;;;;1.23;1.13;;;;;;;12.57;94.23;94639.69;4308285;33;20182;-63
2023/10/24 02:57:33;;;;;;;0.80;0.80;;;;;;;12.42;94.51;94645.56;4310324;33;20297;-63
2023/10/24 03:00:03;;;;;;;1.57;1.00;;;;;;;12.36;94.98;94651.06;4307204;33;20390;-64
2023/10/24 03:02:29;;;;;;;2.37;1.23;;;;;;;12.54;94.16;94641.09;4302468;33;20199;-63
2023/10/24 03:04:54;;;;;;;1.17;1.17;;;;;;;12.54;93.98;94637.66;4300486;32;20182;-63
2023/10/24 03:07:23;;;;;;;1.17;1.17;;;;;;;12.32;95.07;94636.84;4319807;33;20178;-62
2023/10/24 03:09:50;;;;;;;1.20;1.20;;;;;;;12.29;95.12;94621.53;4313458;33;20200;-63
2023/10/24 03:12:16;;;;;;;2.07;1.90;;;;;;;12.41;94.46;94612.87;4301655;33;20210;-63
2023/10/24 03:14:44;;;;;;;1.30;1.13;;;;;;;12.44;94.43;94627.41;4327908;32;20247;-63
2023/10/24 03:17:09;;;;;;;1.00;1.00;;;;;;;12.52;94.03;94629.22;4325799;33;20197;-63
2023/10/24 03:19:36;;;;;;;1.07;1.07;;;;;;;12.38;94.59;94640.09;4297924;33;20278;-62
2023/10/24 03:22:03;;;;;;;1.67;1.50;;;;;;;12.34;94.80;94633.88;4299868;33;20198;-62
2023/10/24 03:24:29;;;;;;;1.07;1.07;;;;;;;12.25;94.71;94636.59;4302843;33;20190;-63
2023/10/24 03:26:56;;;;;;;1.40;1.40;;;;;;;12.34;94.18;94624.00;4315100;33;20272;-63
2023/10/24 03:29:23;;;;;;;0.80;0.80;;;;;;;12.34;93.93;94618.69;4316268;33;20216;-63
2023/10/24 03:31:50;;;;;;;0.40;0.40;;;;;;;12.30;94.24;94623.09;4291875;33;20293;-63
2023/10/24 03:34:18;;;;;;;1.10;1.10;;;;;;;12.30;94.44;94607.13;4297717;33;20212;-62
2023/10/24 03:36:45;;;;;;;1.00;1.00;;;;;;;12.34;94.23;94607.25;4301278;33;20196;-62
2023/10/24 03:39:10;;;;;;;1.53;1.47;;;;;;;12.36;94.28;94600.53;4319605;32;20192;-63
2023/10/24 03:41:36;;;;;;;1.20;1.20;;;;;;;12.27;94.81;94586.50;4321588;33;20182;-62
2023/10/24 03:44:02;;;;;;;0.97;0.97;;;;;;;12.37;94.10;94585.34;4328349;33;20202;-63
2023/10/24 03:46:27;;;;;;;0.80;0.80;;;;;;;12.38;93.66;94592.22;4301277;33;20181;-62
2023/10/24 03:48:52;;;;;;;2.10;1.67;;;;;;;12.33;93.92;94582.53;4322371;33;20185;-63
2023/10/24 03:51:20;;;;;;;0.80;0.80;;;;;;;12.20;94.15;94586.22;4317190;33;20200;-62
2023/10/24 03:53:46;;;;;;;10.17;1.30;;;;;;;12.34;93.79;94594.75;4313176;33;20261;-63
2023/10/24 03:56:12;;;;;;;1.50;1.40;;;;;;;12.35;93.76;94587.56;4290361;33;20212;-63
2023/10/24 03:58:38;;;;;;;0.80;0.80;;;;;;;12.31;93.49;94581.31;4290846;33;20182;-62
2023/10/24 04:01:05;;;;;;;0.63;0.63;;;;;;;12.25;94.00;94586.06;4310674;33;20194;-63
2023/10/24 04:03:32;;;;;;;1.60;1.50;;;;;;;12.05;94.63;94589.44;4297474;33;20185;-63
2023/10/24 04:05:58;;;;;;;1.30;1.30;;;;;;;12.17;94.19;94580.78;4307274;32;20177;-63
2023/10/24 04:08:25;;;;;;;1.37;1.33;;;;;;;12.12;94.24;94579.06;4310189;32;20233;-63
2023/10/24 04:10:52;;;;;;;0.90;0.90;;;;;;;12.14;94.60;94579.53;4288619;33;20228;-63
2023/10/24 04:13:17;;;;;;;2.33;1.27;;;;;;;12.01;94.89;94573.34;4312918;33;20186;-62
2023/10/24 04:15:44;;;;;;;1.43;1.33;;;;;;;12.04;94.90;94575.38;4319471;33;20192;-63
2023/10/24 04:18:11;;;;;;;1.33;1.27;;;;;;;11.96;95.38;94565.56;4298017;33;20285;-63
2023/10/24 04:20:42;;;;;;;0.87;0.87;;;;;;;11.90;95.12;94560.72;4316822;33;20186;-63
2023/10/24 04:23:15;;;;;;;0.70;0.70;;;;;;;11.94;94.88;94556.34;4302210;33;20283;-63
2023/10/24 04:25:42;;;;;;;1.20;1.20;;;;;;;11.88;95.24;94549.63;4314340;33;20198;-63
2023/10/24 04:28:11;;;;;;;2.93;1.30;;;;;;;11.91;95.33;94549.78;4282157;33;20321;-63
2023/10/24 04:30:42;;;;;;;0.87;0.87;;;;;;;11.94;95.10;94551.00;4295346;33;20304;-63
2023/10/24 04:33:09;;;;;;;0.37;0.37;;;;;;;12.09;94.40;94547.03;4296525;33;20481;-63
2023/10/24 04:35:43;;;;;;;1.20;1.03;;;;;;;12.05;94.21;94541.59;4295605;33;20186;-63
2023/10/24 04:38:10;;;;;;;0.80;0.80;;;;;;;11.97;94.67;94531.78;4315447;33;20229;-62
2023/10/24 04:40:38;;;;;;;0.70;0.70;;;;;;;12.04;94.27;94524.88;4315484;33;20186;-63
2023/10/24 04:43:06;;;;;;;0.60;0.60;;;;;;;11.99;94.35;94533.00;4279942;33;20190;-63
2023/10/24 04:45:32;;;;;;;0.63;0.63;;;;;;;12.02;94.53;94526.28;4280568;33;20194;-62
2023/10/24 04:48:05;;;;;;;2.40;1.53;;;;;;;12.00;94.53;94523.16;4308021;33;20232;-62
2023/10/24 04:50:35;;;;;;;0.40;0.40;;;;;;;11.95;94.46;94521.47;4297513;33;20241;-62
2023/10/24 04:53:03;;;;;;;1.33;1.30;;;;;;;12.13;93.69;94514.16;4299865;33;20264;-63
2023/10/24 04:55:29;;;;;;;0.73;0.73;;;;;;;12.24;92.62;94510.03;4304428;33;20189;-63
2023/10/24 04:57:56;;;;;;;1.07;1.07;;;;;;;12.22;92.15;94522.88;4304331;33;20213;-62
2023/10/24 05:00:22;;;;;;;0.63;0.63;;;;;;;12.27;92.42;94519.22;4299027;33;20182;-63
2023/10/24 05:02:49;;;;;;;1.10;0.90;;;;;;;12.27;92.39;94506.69;4320345;33;20174;-62
2023/10/24 05:05:20;;;;;;;1.33;1.33;;;;;;;12.22;92.42;94498.16;4317555;33;20181;-62
2023/10/24 05:07:46;;;;;;;1.10;0.60;;;;;;;12.30;92.01;94499.97;4316287;33;20195;-63
2023/10/24 05:10:13;;;;;;;1.40;1.37;;;;;;;12.31;91.76;94504.19;4291670;33;20186;-63
2023/10/24 05:12:40;;;;;;;3.63;1.10;;;;;;;12.32;91.79;94498.53;4271262;33;20183;-63
2023/10/24 05:15:05;;;;;;;3.30;0.90;;;;;;;12.26;92.14;94491.84;4299579;33;20305;-62
2023/10/24 05:17:34;;;;;;;1.43;1.33;;;;;;;12.32;92.04;94484.47;4307505;33;20183;-63
2023/10/24 05:20:03;;;;;;;0.80;0.80;;;;;;;12.21;92.84;94491.28;4305185;33;20235;-62
2023/10/24 05:22:31;;;;;;;1.00;1.00;;;;;;;12.31;92.23;94502.31;4313819;33;20201;-63
2023/10/24 05:24:58;;;;;;;1.03;1.03;;;;;;;12.21;92.55;94501.91;4288523;33;20185;-62
2023/10/24 05:27:25;;;;;;;0.83;0.83;;;;;;;12.25;92.54;94511.59;4296004;33;20178;-62
2023/10/24 05:29:55;;;;;;;4.07;1.20;;;;;;;12.21;92.78;94505.34;4306836;33;20183;-62
2023/10/24 05:32:21;;;;;;;1.10;1.10;;;;;;;12.22;92.78;94514.91;4285242;33;20300;-63
2023/10/24 05:34:47;;;;;;;1.47;1.40;;;;;;;12.21;92.73;94523.97;4288270;33;20273;-62
2023/10/24 05:37:13;;;;;;;0.97;0.97;;;;;;;12.24;93.00;94522.56;4296112;33;20224;-63
2023/10/24 05:39:39;;;;;;;1.00;1.00;;;;;;;12.29;92.57;94528.44;4274046;33;20212;-62
2023/10/24 05:42:07;;;;;;;0.90;0.90;;;;;;;12.27;92.60;94527.97;4290078;33;20247;-63
2023/10/24 05:44:33;;;;;;;1.97;1.37;;;;;;;12.19;93.30;94525.41;4301128;33;20197;-62
2023/10/24 05:47:00;;;;;;;1.03;1.03;;;;;;;12.16;93.73;94524.16;4311655;33;20200;-62
2023/10/24 05:49:29;;;;;;;1.23;1.13;;;;;;;12.34;92.96;94517.62;4293293;33;20314;-62
2023/10/24 05:51:55;;;;;;;1.17;1.17;;;;;;;12.44;92.77;94526.31;4315062;33;20196;-62
2023/10/24 05:54:20;;;;;;;1.30;1.20;;;;;;;12.38;93.05;94512.44;4313465;33;20217;-62
2023/10/24 05:56:47;;;;;;;1.93;1.40;;;;;;;12.30;93.14;94506.06;4314969;33;20196;-63
2023/10/24 05:59:12;;;;;;;0.53;0.53;;;;;;;12.24;93.05;94503.94;4284818;33;20182;-63
2023/10/24 06:01:39;;;;;;;0.60;0.60;;;;;;;12.29;92.65;94493.88;4304970;33;20353;-63
2023/10/24 06:04:05;;;;;;;1.47;1.47;;;;;;;12.43;92.12;94498.16;4296418;33;20181;-63
2023/10/24 06:06:33;;;;;;;1.67;1.30;;;;;;;12.49;91.82;94494.19;4305254;33;20218;-63
2023/10/24 06:09:00;;;;;;;1.10;1.10;;;;;;;12.63;91.17;94487.50;4299170;33;20192;-63
2023/10/24 06:11:27;;;;;;;5.97;2.07;;;;;;;12.48;91.86;94484.66;4303025;33;20181;-63
2023/10/24 06:13:52;;;;;;;1.00;1.00;;;;;;;12.53;91.72;94481.81;4301787;33;20272;-63
2023/10/24 06:16:20;;;;;;;1.37;1.37;;;;;;;12.55;92.01;94467.06;4291772;33;20226;-62
2023/10/24 06:18:45;;;;;;;1.70;1.60;;;;;;;12.67;91.61;94455.72;4267020;33;20190;-63
2023/10/24 06:21:12;;;;;;;5.07;1.67;;;;;;;12.63;91.19;94444.16;4316735;33;20196;-62
2023/10/24 06:23:40;;;;;;;0.80;0.80;;;;;;;12.53;90.90;94433.91;4314403;33;20303;-63
2023/10/24 06:26:14;;;;;;;1.43;1.37;;;;;;;12.70;90.66;94439.06;4284247;33;20240;-63
2023/10/24 06:28:39;;;;;;;1.50;0.93;;;;;;;12.78;90.32;94434.78;4272037;33;20181;-63
2023/10/24 06:31:06;;;;;;;2.20;1.73;;;;;;;12.70;90.60;94445.16;4281723;33;20296;-63
2023/10/24 06:33:32;;;;;;;1.70;1.53;;;;;;;12.71;90.83;94444.06;4272689;33;20265;-62
2023/10/24 06:36:02;;;;;;;1.17;1.17;;;;;;;12.66;91.08;94443.50;4309867;33;20232;-63
2023/10/24 06:38:28;;;;;;;4.53;1.90;;;;;;;12.61;91.81;94438.38;4314928;33;20189;-62
2023/10/24 06:40:56;;;;;;;1.20;1.10;;;;;;;12.67;91.38;94421.13;4300036;33;20190;-63
2023/10/24 06:43:23;;;;;;;2.23;1.70;;;;;;;12.57;91.74;94432.16;4300027;33;20186;-63
2023/10/24 06:45:51;;;;;;;2.20;1.00;;;;;;;12.77;91.53;94428.66;4279131;33;20191;-62
2023/10/24 06:48:18;;;;;;;1.07;1.07;;;;;;;12.79;90.89;94417.69;4295552;33;20228;-63
2023/10/24 06:50:46;;;;;;;5.57;2.80;;;;;;;12.84;90.75;94422.81;4288853;33;20216;-62
2023/10/24 06:53:13;;;;;;;1.63;1.53;;;;;;;12.91;90.97;94418.50;4296188;33;20189;-62
2023/10/24 06:55:40;;;;;;;0.70;0.70;;;;;;;12.91;90.96;94415.84;4308151;33;20178;-63
2023/10/24 06:58:05;;;;;;;1.83;1.73;;;;;;;12.85;91.63;94424.38;4325699;33;20266;-63
2023/10/24 07:00:38;;;;;;;4.67;1.67;;;;;;;12.87;92.11;94416.84;4313756;33;20185;-62
2023/10/24 07:03:08;;;;;;;3.57;1.97;;;;;;;13.03;91.78;94423.84;4308395;33;20183;-62
2023/10/24 07:05:39;;;;;;;2.37;2.03;;;;;;;13.06;91.37;94433.84;4275195;33;20225;-62
2023/10/24 07:08:04;;;;;;;2.37;2.13;;;;;;;12.98;91.30;94436.59;4305796;33;20178;-61
2023/10/24 07:10:33;;;;;;;1.37;1.37;;;;;;;12.96;92.06;94436.94;4289582;33;20205;-61
2023/10/24 07:12:59;;;;;;;2.37;1.40;;;;;;;12.94;92.41;94441.03;4272775;33;20178;-61
2023/10/24 07:15:25;;;;;;;1.50;1.17;;;;;;;13.03;91.59;94431.84;4301398;33;20205;-62
2023/10/24 07:17:52;;;;;;;1.63;1.53;;;;;;;13.19;90.97;94428.56;4323079;33;20245;-62
2023/10/24 07:20:21;;;;;;;2.70;2.43;;;;;;;13.13;90.62;94411.97;4278406;33;20242;-62
2023/10/24 07:22:47;;;;;;;1.70;1.60;;;;;;;13.09;90.59;94403.12;4285138;33;20193;-62
2023/10/24 07:25:18;;;;;;;2.60;2.40;;;;;;;13.15;90.65;94399.16;4313733;33;20208;-61
2023/10/24 07:28:05;;;;;;;2.77;1.10;;;;;;;13.16;90.95;94402.59;4313089;33;20195;-61
2023/10/24 07:30:35;;;;;;;1.23;1.23;;;;;;;12.98;90.98;94402.00;4313077;33;20178;-62
2023/10/24 07:33:01;;;;;;;2.67;1.23;;;;;;;13.19;90.73;94405.38;4291047;33;20233;-62
2023/10/24 07:35:29;;;;;;;1.60;1.50;;;;;;;13.11;90.59;94400.09;4310737;33;20190;-62
2023/10/24 07:38:02;;;;;;;5.70;2.10;;;;;;;13.09;90.76;94403.88;4289759;33;20182;-61
2023/10/24 07:40:27;;;;;;;4.53;1.93;;;;;;;13.11;90.86;94400.88;4283393;33;20197;-61
2023/10/24 07:42:55;;;;;;;8.67;2.27;;;;;;;13.04;90.98;94395.34;4313208;33;20206;-62
2023/10/24 07:45:24;;;;;;;2.03;1.93;;;;;;;13.04;91.47;94395.34;4300339;33;20240;-62
2023/10/24 07:47:51;;;;;;;2.40;2.20;;;;;;;12.99;92.20;94399.00;4304237;33;20190;-62
2023/10/24 07:50:17;;;;;;;1.80;1.70;;;;;;;13.08;92.18;94397.03;4301959;33;20209;-62
2023/10/24 07:52:44;;;;;;;3.17;2.13;;;;;;;13.22;91.47;94396.72;4311805;33;20261;-62
2023/10/24 07:55:12;;;;;;;2.10;2.00;;;;;;;13.16;92.13;94392.72;4282501;33;20197;-61
2023/10/24 07:57:39;;;;;;;1.67;1.67;;;;;;;13.24;91.96;94393.72;4295724;33;20220;-61
2023/10/24 08:00:07;;;;;;;2.00;1.90;;;;;;;13.28;91.20;94405.28;4299528;33;20195;-62
2023/10/24 08:02:35;;;;;;;3.87;2.23;;;;;;;13.08;92.28;94397.03;4316086;33;20189;-62
2023/10/24 08:05:02;;;;;;;2.63;2.43;;;;;;;13.07;92.78;94384.81;4303680;33;20217;-62
2023/10/24 08:07:29;;;;;;;3.70;2.53;;;;;;;13.17;92.26;94382.84;4285494;32;20213;-62
2023/10/24 08:09:56;;;;;;;1.70;1.60;;;;;;;13.19;91.52;94377.97;4290884;33;20189;-61
2023/10/24 08:12:23;;;;;;;1.77;1.73;;;;;;;13.11;92.16;94374.25;4302356;32;20174;-62
2023/10/24 08:14:49;;;;;;;4.77;2.67;;;;;;;13.05;92.33;94378.28;4300439;33;20240;-62
2023/10/24 08:17:16;;;;;;;1.80;1.80;;;;;;;13.03;92.66;94383.91;4312371;33;20253;-62
2023/10/24 08:19:42;;;;;;;2.10;2.00;;;;;;;13.07;92.32;94390.16;4305094;33;20216;-62
2023/10/24 08:22:10;;;;;;;3.30;3.03;;;;;;;12.95;92.61;94398.09;4288747;33;20186;-62
2023/10/24 08:24:38;;;;;;;3.97;3.73;;;;;;;12.97;92.70;94385.22;4296119;33;20271;-62
2023/10/24 08:27:05;;;;;;;3.03;2.83;;;;;;;12.99;93.02;94388.34;4306855;33;20186;-62
2023/10/24 08:29:32;;;;;;;3.03;2.83;;;;;;;13.17;92.31;94393.50;4311659;33;20249;-62
2023/10/24 08:32:00;;;;;;;3.00;2.00;;;;;;;13.22;91.70;94393.28;4304920;33;20186;-62
2023/10/24 08:34:28;;;;;;;7.20;3.00;;;;;;;13.31;91.22;94375.28;4294869;33;20187;-62
2023/10/24 08:36:53;;;;;;;3.30;2.73;;;;;;;13.12;92.32;94370.50;4300807;33;20268;-62
2023/10/24 08:39:19;;;;;;;7.13;3.37;;;;;;;13.03;92.88;94362.63;4280727;33;20191;-62
2023/10/24 08:41:51;;;;;;;16.43;3.37;;;;;;;13.07;92.61;94358.19;4318018;33;20181;-63
2023/10/24 08:44:20;;;;;;;2.60;2.50;;;;;;;13.22;92.23;94361.31;4307109;33;20190;-62
2023/10/24 08:46:49;;;;;;;4.10;3.70;;;;;;;13.19;92.27;94359.31;4265815;33;20183;-62
2023/10/24 08:49:19;;;;;;;3.27;2.37;;;;;;;13.24;92.39;94357.22;4326756;33;20221;-62
2023/10/24 08:51:48;;;;;;;2.17;2.07;;;;;;;13.22;92.02;94363.97;4305619;33;20198;-62
2023/10/24 08:54:17;;;;;;;3.20;3.00;;;;;;;13.28;92.24;94368.75;4293697;33;20204;-62
2023/10/24 08:56:46;;;;;;;2.53;2.43;;;;;;;13.37;91.96;94372.06;4299233;33;20186;-61
2023/10/24 08:59:18;;;;;;;2.03;1.93;;;;;;;13.44;91.83;94373.41;4286048;33;20217;-61
2023/10/24 09:01:46;;;;;;;3.10;3.00;;;;;;;13.36;92.26;94375.06;4266190;33;20189;-62
2023/10/24 09:04:14;;;;;;;1.70;1.70;;;;;;;13.39;91.91;94377.06;4320250;33;20197;-62
2023/10/24 09:06:42;;;;;;;2.70;2.50;;;;;;;13.61;91.15;94376.63;4275996;32;20334;-62
2023/10/24 09:09:12;;;;;;;4.73;2.30;;;;;;;13.67;91.10;94374.50;4265295;33;20200;-61
2023/10/24 09:11:59;;;;;;;3.23;3.03;;;;;;;13.67;90.77;94369.94;4255192;33;20261;-61
2023/10/24 09:14:30;;;;;;;3.07;2.93;;;;;;;13.63;91.07;94363.72;4309768;33;20200;-61
2023/10/24 09:22:02;;;;;;;10.13;2.77;;;;;;;13.46;91.88;94369.31;4307324;33;20204;-62
2023/10/24 09:24:20;;;;;;;3.33;3.03;;;;;;;13.72;91.52;94351.03;4246256;33;20302;-62
2023/10/24 09:26:51;;;;;;;3.23;3.03;;;;;;;13.59;92.07;94336.19;4303439;33;20190;-62
2023/10/24 09:29:24;;;;;;;2.17;1.97;;;;;;;13.57;92.46;94337.63;4282056;33;20209;-62
2023/10/24 09:31:52;;;;;;;3.33;3.03;;;;;;;13.53;92.68;94318.88;4295288;33;20216;-62
2023/10/24 09:34:21;;;;;;;3.03;2.33;;;;;;;13.53;93.28;94318.09;4271804;33;20228;-62
2023/10/24 09:36:51;;;;;;;2.57;2.47;;;;;;;13.61;93.29;94312.66;4295464;33;20178;-62
2023/10/24 09:39:17;;;;;;;2.70;2.50;;;;;;;13.60;92.53;94305.00;4294693;33;20281;-61
2023/10/24 09:41:47;;;;;;;2.37;2.27;;;;;;;13.63;92.68;94307.00;4288288;33;20200;-61
2023/10/24 09:44:13;;;;;;;1.77;1.77;;;;;;;13.46;93.05;94300.03;4273467;33;20190;-62
2023/10/24 09:46:42;;;;;;;2.67;2.53;;;;;;;13.54;93.09;94296.44;4297411;32;20261;-61
2023/10/24 09:49:10;;;;;;;2.47;2.37;;;;;;;13.46;93.20;94291.25;4309882;33;20206;-61
2023/10/24 09:51:38;;;;;;;2.33;2.23;;;;;;;13.59;92.41;94292.78;4301461;33;20279;-63
2023/10/24 09:54:07;;;;;;;3.50;3.30;;;;;;;13.49;92.97;94282.59;4300365;33;20200;-63
2023/10/24 09:56:33;;;;;;;3.27;3.07;;;;;;;13.40;93.29;94282.72;4312389;33;20194;-62
2023/10/24 10:03:13;;;;;;;2.30;2.20;;;;;;;13.31;93.35;94274.06;4309111;33;20232;-64
2023/10/24 10:06:39;;;;;;;2.23;2.13;;;;;;;13.44;93.71;94270.28;4291872;33;21456;-64
2023/10/24 10:09:06;;;;;;;2.10;2.00;;;;;;;13.44;93.26;94266.84;4297811;33;20178;-63
2023/10/24 10:12:03;;;;;;;1.97;1.87;;;;;;;13.22;94.99;94268.09;4304418;33;20226;-64
2023/10/24 10:14:58;;;;;;;1.80;1.70;;;;;;;13.41;94.48;94268.28;4313763;33;20186;-63
2023/10/24 10:18:06;;;;;;;2.47;2.27;;;;;;;13.18;94.47;94256.56;4286390;33;20186;-63
2023/10/24 10:21:10;;;;;;;1.83;1.73;;;;;;;13.07;95.43;94249.03;4262155;33;20233;-62
2023/10/24 10:24:06;;;;;;;2.13;2.03;;;;;;;12.98;95.55;94242.25;4308231;33;20177;-63
2023/10/24 10:26:53;;;;;;;6.47;2.97;;;;;;;12.95;95.78;94233.03;4309487;33;20210;-62
2023/10/24 10:30:18;;;;;;;2.33;2.30;;;;;;;13.04;95.86;94225.72;4265411;33;20292;-63
2023/10/24 10:33:11;;;;;;;2.47;2.37;;;;;;;12.88;96.78;94216.09;4284839;33;20189;-62
2023/10/24 10:35:53;;;;;;;2.33;2.23;;;;;;;13.01;96.50;94214.97;4270305;33;20216;-62
2023/10/24 10:38:43;;;;;;;2.97;2.77;;;;;;;12.95;96.70;94214.41;4298238;33;20186;-61
2023/10/24 10:41:23;;;;;;;2.57;2.43;;;;;;;13.08;96.82;94215.97;4311148;33;20182;-62
2023/10/24 10:44:00;;;;;;;2.73;2.63;;;;;;;13.07;97.25;94211.75;4295190;33;20189;-62
2023/10/24 10:46:30;;;;;;;3.47;3.10;;;;;;;13.08;97.03;94205.31;4281324;33;20182;-62
2023/10/24 10:49:04;;;;;;;3.30;3.10;;;;;;;13.01;97.05;94210.41;4257660;33;20237;-62
2023/10/24 10:55:08;;;;;;;5.00;3.33;;;;;;;12.96;97.24;94207.97;4257086;33;20221;-62
2023/10/24 10:57:59;;;;;;;3.73;3.53;;;;;;;12.98;97.10;94208.41;4297448;33;20189;-62
2023/10/24 11:01:10;;;;;;;3.73;3.53;;;;;;;12.95;97.05;94202.97;4303918;33;20178;-62
2023/10/24 11:03:42;;;;;;;3.63;3.37;;;;;;;12.76;98.64;94203.56;4282708;33;20304;-62
2023/10/24 11:06:17;;;;;;;3.90;3.70;;;;;;;13.00;98.04;94211.53;4299082;33;20220;-62
2023/10/24 11:09:04;;;;;;;3.53;3.33;;;;;;;13.09;97.96;94198.84;4294863;33;20197;-61
2023/10/24 11:11:31;;;;;;;3.13;2.93;;;;;;;13.14;97.58;94205.06;4291973;33;20198;-62
2023/10/24 11:14:20;;;;;;;5.77;4.63;;;;;;;13.32;96.72;94199.16;4272210;33;20187;-62
2023/10/24 11:20:44;;;;;;;4.50;4.20;;;;;;;13.16;96.32;94205.53;4201196;33;20239;-62
2023/10/24 11:23:13;;;;;;;3.70;3.60;;;;;;;13.24;96.42;94217.94;4273480;33;20209;-62
2023/10/24 11:25:47;;;;;;;3.37;3.27;;;;;;;13.05;96.25;94218.50;4269843;33;20312;-62
2023/10/24 11:28:13;;;;;;;3.60;3.30;;;;;;;13.15;96.89;94226.06;4290805;33;20178;-62
2023/10/24 11:30:39;;;;;;;3.43;3.23;;;;;;;13.24;96.40;94240.03;4295383;33;20202;-62
2023/10/24 11:33:05;;;;;;;3.50;3.30;;;;;;;13.20;96.24;94235.69;4293350;33;20196;-62
2023/10/24 11:35:31;;;;;;;2.70;2.60;;;;;;;13.19;97.18;94226.16;4309971;33;20174;-62
2023/10/24 11:37:58;;;;;;;3.10;2.90;;;;;;;13.09;96.48;94230.78;4306033;33;20245;-62
2023/10/24 11:40:25;;;;;;;3.93;3.73;;;;;;;13.16;96.23;94219.62;4319293;33;20205;-62
2023/10/24 11:42:50;;;;;;;4.60;4.30;;;;;;;13.13;95.85;94224.81;4308214;33;20212;-62
2023/10/24 11:45:20;;;;;;;4.47;4.07;;;;;;;13.01;97.27;94236.25;4310813;33;20248;-62
2023/10/24 11:47:46;;;;;;;4.50;4.30;;;;;;;13.14;97.81;94234.34;4295074;33;20187;-62
2023/10/24 11:50:13;;;;;;;4.93;3.20;;;;;;;13.01;97.37;94233.59;4307558;33;20186;-62
2023/10/24 11:52:40;;;;;;;4.47;4.17;;;;;;;13.15;97.76;94234.03;4309000;33;20181;-62
2023/10/24 11:55:07;;;;;;;3.00;2.90;;;;;;;13.16;98.42;94237.47;4299282;33;20287;-62
2023/10/24 11:57:33;;;;;;;6.87;5.40;;;;;;;13.16;97.59;94232.16;4321543;33;20186;-62
2023/10/24 11:59:58;;;;;;;4.07;3.87;;;;;;;13.18;97.94;94227.28;4282560;33;20188;-62